createdAt,value
2023-04-24T00:01:22.208Z,53.23
2023-04-24T00:03:53.904Z,57.03
2023-04-24T00:06:26.275Z,48.33
2023-04-24T00:08:57.809Z,46.13
2023-04-24T00:11:29.325Z,48.50
2023-04-24T00:14:01.354Z,45.83
2023-04-24T00:16:32.246Z,47.88
2023-04-24T00:19:03.430Z,44.72
2023-04-24T00:21:35.711Z,42.80
2023-04-24T00:24:08.773Z,40.65
2023-04-24T00:26:39.639Z,42.20
2023-04-24T00:29:43.008Z,41.50
2023-04-24T00:32:14.136Z,42.53
2023-04-24T00:34:46.052Z,45.47
2023-04-24T00:37:16.673Z,46.40
2023-04-24T00:39:49.069Z,46.60
2023-04-24T00:42:20.286Z,46.30
2023-04-24T00:44:52.319Z,44.95
2023-04-24T00:47:24.238Z,45.80
2023-04-24T00:49:56.093Z,45.07
2023-04-24T00:52:26.756Z,47.33
2023-04-24T00:54:58.669Z,43.70
2023-04-24T00:57:29.952Z,46.97
2023-04-24T01:00:02.429Z,46.92
2023-04-24T01:02:33.683Z,45.60
2023-04-24T01:05:06.087Z,44.78
2023-04-24T01:07:39.148Z,48.03
2023-04-24T01:10:12.458Z,45.53
2023-04-24T01:12:44.167Z,47.50
2023-04-24T01:15:16.141Z,43.85
2023-04-24T01:17:48.140Z,44.55
2023-04-24T01:20:21.116Z,46.92
2023-04-24T01:22:52.869Z,50.08
2023-04-24T01:25:27.594Z,48.35
2023-04-24T01:28:01.380Z,48.03
2023-04-24T01:30:33.995Z,49.63
2023-04-24T01:33:05.750Z,51.38
2023-04-24T01:35:39.448Z,50.90
2023-04-24T01:38:11.293Z,49.25
2023-04-24T01:40:42.105Z,51.60
2023-04-24T01:43:14.067Z,53.33
2023-04-24T01:45:45.451Z,51.65
2023-04-24T01:48:19.509Z,51.58
2023-04-24T01:50:50.349Z,50.53
2023-04-24T01:53:21.432Z,50.17
2023-04-24T01:55:53.151Z,48.72
2023-04-24T01:58:25.348Z,47.90
2023-04-24T02:00:56.441Z,45.72
2023-04-24T02:03:27.253Z,49.63
2023-04-24T02:08:30.535Z,36.95
2023-04-24T02:11:02.265Z,29.52
2023-04-24T02:13:34.481Z,33.28
2023-04-24T02:16:05.696Z,33.60
2023-04-24T02:21:12.150Z,37.22
2023-04-24T02:23:43.964Z,45.50
2023-04-24T02:26:17.144Z,61.80
2023-04-24T02:28:48.557Z,67.63
2023-04-24T02:31:19.761Z,71.83
2023-04-24T02:33:51.921Z,80.10
2023-04-24T02:36:23.502Z,77.35
2023-04-24T02:38:53.229Z,66.13
2023-04-24T02:41:22.440Z,53.25
2023-04-24T02:43:51.557Z,47.22
2023-04-24T02:46:20.932Z,44.05
2023-04-24T02:48:50.095Z,42.75
2023-04-24T02:51:19.245Z,42.13
2023-04-24T02:53:48.275Z,40.47
2023-04-24T02:56:17.314Z,37.05
2023-04-24T02:58:46.411Z,35.35
2023-04-24T03:01:15.665Z,39.58
2023-04-24T03:03:45.071Z,38.58
2023-04-24T03:06:14.248Z,35.70
2023-04-24T03:08:43.482Z,34.53
2023-04-24T03:11:16.583Z,34.50
2023-04-24T03:13:45.838Z,28.52
2023-04-24T03:16:14.847Z,27.92
2023-04-24T03:18:43.950Z,26.13
2023-04-24T03:21:15.220Z,27.42
2023-04-24T03:23:45.152Z,24.45
2023-04-24T03:26:14.164Z,23.30
2023-04-24T03:28:53.802Z,21.45
2023-04-24T03:31:23.304Z,22.55
2023-04-24T03:33:53.125Z,22.60
2023-04-24T03:36:22.543Z,23.00
2023-04-24T03:38:51.641Z,22.00
2023-04-24T03:41:34.004Z,23.35
2023-04-24T03:44:16.726Z,27.77
2023-04-24T03:46:46.098Z,23.90
2023-04-24T03:49:15.508Z,23.80
2023-04-24T03:51:46.815Z,26.20
2023-04-24T03:54:27.506Z,22.15
2023-04-24T03:56:56.862Z,22.08
2023-04-24T03:59:28.260Z,21.13
2023-04-24T04:02:14.788Z,18.35
2023-04-24T04:04:44.051Z,14.60
2023-04-24T04:07:14.977Z,15.02
2023-04-24T04:09:44.608Z,13.55
2023-04-24T04:12:14.689Z,13.63
2023-04-24T04:14:44.903Z,10.82
2023-04-24T04:17:14.221Z,12.32
2023-04-24T04:19:44.931Z,11.70
2023-04-24T04:22:14.124Z,12.20
2023-04-24T04:24:48.323Z,14.07
2023-04-24T04:27:19.086Z,13.90
2023-04-24T04:29:55.558Z,14.55
2023-04-24T04:32:25.341Z,12.40
2023-04-24T04:34:55.236Z,7.30
2023-04-24T04:37:27.410Z,7.63
2023-04-24T04:40:15.010Z,6.70
2023-04-24T04:42:59.383Z,7.35
2023-04-24T04:45:32.652Z,7.38
2023-04-24T04:48:33.509Z,7.53
2023-04-24T04:51:04.521Z,6.57
2023-04-24T04:53:33.831Z,7.18
2023-04-24T04:56:02.758Z,6.45
2023-04-24T04:58:38.415Z,7.43
2023-04-24T05:01:11.243Z,6.32
2023-04-24T05:03:44.293Z,6.80
2023-04-24T05:08:46.407Z,5.93
2023-04-24T05:11:44.227Z,5.03
2023-04-24T05:14:14.788Z,8.48
2023-04-24T05:16:45.415Z,5.72
2023-04-24T05:19:16.893Z,5.28
2023-04-24T05:21:48.088Z,4.15
2023-04-24T05:24:17.558Z,6.18
2023-04-24T05:26:46.518Z,4.90
2023-04-24T05:29:18.193Z,4.57
2023-04-24T05:31:47.700Z,4.22
2023-04-24T05:34:18.857Z,4.43
2023-04-24T05:36:52.690Z,3.40
2023-04-24T05:39:22.891Z,5.32
2023-04-24T05:41:51.926Z,4.03
2023-04-24T05:44:20.746Z,4.45
2023-04-24T05:46:50.525Z,6.07
2023-04-24T05:49:20.326Z,3.70
2023-04-24T05:51:49.901Z,3.55
2023-04-24T05:54:20.376Z,4.43
2023-04-24T05:56:49.283Z,4.35
2023-04-24T05:59:27.303Z,3.92
2023-04-24T06:01:56.496Z,4.45
2023-04-24T06:04:26.825Z,4.13
2023-04-24T06:06:58.127Z,4.70
2023-04-24T06:09:28.214Z,4.63
2023-04-24T06:11:58.701Z,4.90
2023-04-24T06:14:34.294Z,4.93
2023-04-24T06:17:19.289Z,4.65
2023-04-24T06:19:49.487Z,5.40
2023-04-24T06:22:18.833Z,4.57
2023-04-24T06:24:49.181Z,5.15
2023-04-24T06:27:20.051Z,3.83
2023-04-24T06:29:56.192Z,4.25
2023-04-24T06:32:27.193Z,4.20
2023-04-24T06:34:57.172Z,3.90
2023-04-24T06:37:28.658Z,3.33
2023-04-24T06:39:57.784Z,4.55
2023-04-24T06:42:27.011Z,3.83
2023-04-24T06:44:55.997Z,3.15
2023-04-24T06:47:25.402Z,3.90
2023-04-24T06:49:55.732Z,4.47
2023-04-24T06:52:24.745Z,4.07
2023-04-24T06:54:53.854Z,3.70
2023-04-24T06:57:23.518Z,5.15
2023-04-24T06:59:52.504Z,3.75
2023-04-24T07:02:22.056Z,4.00
2023-04-24T07:04:51.392Z,3.55
2023-04-24T07:07:20.197Z,3.50
2023-04-24T07:09:50.441Z,3.70
2023-04-24T07:12:22.128Z,3.85
2023-04-24T07:14:51.810Z,3.65
2023-04-24T07:17:20.793Z,3.85
2023-04-24T07:19:49.872Z,4.80
2023-04-24T07:22:19.399Z,4.60
2023-04-24T07:24:48.137Z,4.40
2023-04-24T07:27:17.420Z,4.40
2023-04-24T07:29:46.650Z,5.45
2023-04-24T07:32:16.572Z,5.65
2023-04-24T07:34:45.556Z,5.57
2023-04-24T07:37:14.625Z,5.72
2023-04-24T07:39:43.922Z,5.07
2023-04-24T07:42:13.342Z,5.93
2023-04-24T07:44:42.221Z,7.43
2023-04-24T07:47:11.572Z,5.93
2023-04-24T07:49:41.159Z,4.70
2023-04-24T07:52:10.621Z,4.85
2023-04-24T07:54:39.463Z,5.55
2023-04-24T07:57:10.283Z,5.53
2023-04-24T07:59:39.275Z,5.18
2023-04-24T08:02:11.503Z,5.13
2023-04-24T08:04:40.682Z,4.30
2023-04-24T08:07:10.779Z,5.03
2023-04-24T08:09:39.756Z,4.05
2023-04-24T08:12:08.857Z,4.38
2023-04-24T08:14:37.995Z,6.03
2023-04-24T08:17:07.144Z,5.30
2023-04-24T08:19:36.871Z,4.68
2023-04-24T08:22:06.739Z,7.13
2023-04-24T08:24:36.334Z,12.88
2023-04-24T08:27:05.124Z,6.55
2023-04-24T08:29:34.720Z,4.10
2023-04-24T08:32:03.732Z,7.95
2023-04-24T08:34:32.862Z,5.22
2023-04-24T08:37:01.932Z,4.00
2023-04-24T08:39:31.008Z,5.00
2023-04-24T08:42:07.369Z,4.00
2023-04-24T08:44:37.992Z,4.30
2023-04-24T08:47:08.704Z,4.40
2023-04-24T08:49:39.587Z,3.47
2023-04-24T08:52:08.799Z,8.90
2023-04-24T08:54:38.407Z,10.05
2023-04-24T08:57:13.588Z,4.30
2023-04-24T08:59:44.539Z,9.05
2023-04-24T09:02:16.278Z,7.45
2023-04-24T09:04:46.697Z,3.27
2023-04-24T09:07:19.117Z,3.50
2023-04-24T09:09:48.345Z,4.45
2023-04-24T09:12:17.390Z,5.10
2023-04-24T09:14:47.790Z,3.55
2023-04-24T09:17:16.973Z,4.10
2023-04-24T09:19:46.666Z,3.50
2023-04-24T09:22:16.082Z,3.30
2023-04-24T09:24:45.125Z,3.40
2023-04-24T09:27:15.069Z,3.50
2023-04-24T09:29:57.532Z,3.53
2023-04-24T09:32:27.801Z,3.38
2023-04-24T09:35:14.680Z,4.82
2023-04-24T09:37:46.856Z,2.83
2023-04-24T09:43:03.206Z,3.38
2023-04-24T09:45:40.193Z,3.30
2023-04-24T09:48:12.602Z,3.05
2023-04-24T09:50:42.315Z,3.15
2023-04-24T09:53:12.672Z,2.97
2023-04-24T09:55:47.557Z,3.50
2023-04-24T09:58:16.752Z,3.63
2023-04-24T10:00:48.670Z,3.78
2023-04-24T10:03:20.606Z,3.42
2023-04-24T10:05:49.962Z,3.90
2023-04-24T10:08:18.788Z,3.63
2023-04-24T10:10:48.908Z,3.75
2023-04-24T10:13:18.295Z,3.30
2023-04-24T10:15:50.279Z,3.00
2023-04-24T10:18:20.511Z,3.03
2023-04-24T10:20:49.951Z,3.60
2023-04-24T10:23:21.365Z,3.00
2023-04-24T10:25:51.806Z,4.65
2023-04-24T10:28:22.829Z,3.70
2023-04-24T10:30:53.105Z,3.53
2023-04-24T10:33:22.378Z,5.25
2023-04-24T10:35:53.288Z,5.72
2023-04-24T10:38:27.769Z,12.75
2023-04-24T10:41:21.562Z,4.85
2023-04-24T10:43:52.887Z,4.22
2023-04-24T10:46:25.105Z,3.27
2023-04-24T10:48:57.598Z,4.28
2023-04-24T10:51:45.303Z,3.22
2023-04-24T10:54:36.587Z,3.33
2023-04-24T10:57:27.308Z,3.22
2023-04-24T11:00:20.579Z,3.50
2023-04-24T11:02:52.404Z,4.03
2023-04-24T11:05:22.739Z,5.72
2023-04-24T11:08:18.029Z,5.65
2023-04-24T11:10:48.599Z,4.03
2023-04-24T11:13:24.774Z,4.03
2023-04-24T11:16:15.971Z,3.25
2023-04-24T11:18:52.857Z,3.85
2023-04-24T11:21:23.098Z,3.58
2023-04-24T11:23:52.683Z,3.72
2023-04-24T11:26:32.322Z,3.72
2023-04-24T11:29:10.711Z,3.42
2023-04-24T11:31:42.106Z,4.22
2023-04-24T11:34:12.862Z,3.73
2023-04-24T11:36:42.820Z,3.38
2023-04-24T11:39:13.098Z,4.60
2023-04-24T11:41:42.491Z,3.33
2023-04-24T11:44:13.448Z,3.42
2023-04-24T11:46:42.807Z,3.60
2023-04-24T11:49:11.947Z,3.45
2023-04-24T11:51:52.233Z,4.60
2023-04-24T11:54:23.490Z,3.40
2023-04-24T11:56:52.564Z,3.78
2023-04-24T11:59:21.731Z,4.15
2023-04-24T12:01:51.812Z,3.28
2023-04-24T12:04:21.499Z,4.45
2023-04-24T12:07:03.483Z,3.70
2023-04-24T12:09:47.511Z,3.28
2023-04-24T12:12:19.531Z,4.00
2023-04-24T12:15:11.827Z,4.40
2023-04-24T12:17:44.388Z,3.65
2023-04-24T12:20:15.432Z,3.58
2023-04-24T12:22:50.624Z,3.63
2023-04-24T12:25:21.333Z,4.32
2023-04-24T12:28:14.538Z,3.53
2023-04-24T12:30:47.478Z,4.68
2023-04-24T12:33:23.902Z,4.28
2023-04-24T12:35:56.624Z,4.45
2023-04-24T12:38:29.092Z,5.28
2023-04-24T12:43:57.510Z,3.80
2023-04-24T12:46:27.311Z,4.13
2023-04-24T12:48:56.540Z,5.10
2023-04-24T12:51:26.235Z,4.82
2023-04-24T12:53:56.501Z,4.03
2023-04-24T12:56:26.484Z,4.22
2023-04-24T12:58:55.408Z,5.13
2023-04-24T13:01:24.556Z,7.93
2023-04-24T13:03:54.082Z,6.72
2023-04-24T13:06:23.218Z,6.70
2023-04-24T13:08:53.439Z,5.38
2023-04-24T13:11:24.116Z,10.98
2023-04-24T13:13:55.316Z,8.82
2023-04-24T13:16:25.518Z,5.67
2023-04-24T13:18:55.135Z,6.55
2023-04-24T13:21:24.217Z,6.70
2023-04-24T13:23:53.778Z,7.03
2023-04-24T13:26:23.387Z,5.80
2023-04-24T13:28:52.613Z,11.93
2023-04-24T13:31:21.564Z,9.98
2023-04-24T13:33:51.335Z,6.20
2023-04-24T13:36:20.497Z,5.88
2023-04-24T13:38:50.017Z,6.82
2023-04-24T13:41:18.968Z,6.63
2023-04-24T13:43:48.139Z,7.10
2023-04-24T13:46:17.322Z,7.57
2023-04-24T13:48:46.659Z,7.72
2023-04-24T13:51:15.776Z,6.80
2023-04-24T13:53:44.939Z,6.63
2023-04-24T13:56:15.915Z,6.57
2023-04-24T13:58:44.748Z,6.65
2023-04-24T14:01:15.399Z,7.07
2023-04-24T14:03:48.433Z,6.55
2023-04-24T14:06:17.962Z,6.95
2023-04-24T14:08:47.005Z,7.10
2023-04-24T14:11:17.226Z,6.32
2023-04-24T14:13:47.467Z,6.80
2023-04-24T14:16:16.913Z,7.65
2023-04-24T14:18:45.952Z,7.68
2023-04-24T14:21:15.094Z,8.40
2023-04-24T14:23:44.304Z,9.98
2023-04-24T14:26:13.812Z,8.77
2023-04-24T14:28:42.885Z,9.20
2023-04-24T14:31:12.114Z,10.30
2023-04-24T14:33:41.215Z,9.32
2023-04-24T14:36:10.270Z,8.80
2023-04-24T14:38:39.238Z,9.90
2023-04-24T14:41:13.932Z,9.98
2023-04-24T14:47:57.502Z,6.95
2023-04-24T14:50:29.915Z,7.78
2023-04-24T14:55:30.898Z,8.10
2023-04-24T14:57:59.809Z,7.13
2023-04-24T15:00:29.152Z,8.85
2023-04-24T15:02:58.359Z,8.55
2023-04-24T15:05:27.525Z,8.43
2023-04-24T15:07:56.907Z,7.47
2023-04-24T15:10:27.328Z,7.82
2023-04-24T15:12:56.657Z,7.85
2023-04-24T15:15:25.673Z,8.75
2023-04-24T15:17:54.522Z,8.30
2023-04-24T15:20:23.762Z,8.00
2023-04-24T15:22:52.907Z,7.72
2023-04-24T15:25:21.878Z,7.50
2023-04-24T15:27:51.497Z,7.03
2023-04-24T15:30:20.712Z,7.03
2023-04-24T15:32:49.793Z,7.45
2023-04-24T15:35:19.664Z,7.10
2023-04-24T15:37:48.813Z,7.97
2023-04-24T15:40:17.890Z,6.72
2023-04-24T15:42:47.998Z,7.82
2023-04-24T15:45:17.208Z,8.20
2023-04-24T15:47:50.568Z,7.65
2023-04-24T15:50:20.483Z,9.10
2023-04-24T15:52:49.581Z,7.90
2023-04-24T15:55:18.822Z,7.63
2023-04-24T15:57:47.938Z,9.18
2023-04-24T16:00:17.479Z,8.85
2023-04-24T16:02:47.254Z,8.27
2023-04-24T16:05:16.319Z,7.07
2023-04-24T16:07:45.831Z,7.38
2023-04-24T16:10:15.808Z,8.18
2023-04-24T16:12:45.177Z,6.82
2023-04-24T16:15:14.271Z,7.68
2023-04-24T16:17:43.260Z,9.85
2023-04-24T16:20:14.751Z,8.45
2023-04-24T16:22:43.804Z,8.40
2023-04-24T16:25:13.326Z,10.27
2023-04-24T16:27:42.652Z,9.10
2023-04-24T16:30:12.300Z,10.27
2023-04-24T16:32:41.933Z,8.48
2023-04-24T16:35:11.193Z,9.63
2023-04-24T16:37:40.292Z,11.85
2023-04-24T16:40:11.890Z,12.55
2023-04-24T16:42:41.456Z,12.68
2023-04-24T16:45:10.914Z,13.07
2023-04-24T16:47:40.344Z,15.05
2023-04-24T16:50:09.430Z,12.20
2023-04-24T16:52:40.000Z,10.80
2023-04-24T16:55:10.348Z,10.60
2023-04-24T16:57:39.719Z,9.02
2023-04-24T17:00:09.902Z,9.05
2023-04-24T17:02:38.938Z,8.65
2023-04-24T17:05:08.643Z,8.23
2023-04-24T17:07:38.312Z,9.27
2023-04-24T17:10:09.952Z,9.88
2023-04-24T17:12:39.207Z,11.25
2023-04-24T17:15:08.697Z,10.23
2023-04-24T17:17:37.899Z,10.38
2023-04-24T17:20:18.728Z,9.90
2023-04-24T17:22:51.855Z,9.80
2023-04-24T17:25:22.325Z,10.27
2023-04-24T17:27:51.480Z,12.15
2023-04-24T17:30:20.376Z,13.80
2023-04-24T17:32:49.599Z,16.17
2023-04-24T17:35:18.974Z,13.70
2023-04-24T17:37:49.012Z,13.48
2023-04-24T17:40:19.083Z,12.45
2023-04-24T17:42:48.270Z,12.55
2023-04-24T17:45:17.385Z,16.25
2023-04-24T17:47:46.906Z,19.35
2023-04-24T17:50:16.814Z,15.55
2023-04-24T17:52:45.817Z,12.70
2023-04-24T17:55:15.292Z,14.32
2023-04-24T17:57:44.674Z,10.32
2023-04-24T18:00:14.804Z,9.07
2023-04-24T18:02:43.810Z,11.05
2023-04-24T18:05:12.962Z,31.65
2023-04-24T18:07:42.174Z,24.55
2023-04-24T18:10:11.290Z,16.55
2023-04-24T18:12:40.593Z,13.43
2023-04-24T18:15:16.364Z,12.00
2023-04-24T18:17:45.971Z,11.63
2023-04-24T18:20:18.230Z,12.77
2023-04-24T18:22:48.143Z,12.43
2023-04-24T18:25:17.661Z,11.98
2023-04-24T18:27:46.519Z,12.48
2023-04-24T18:30:16.327Z,105.85
2023-04-24T18:32:45.301Z,82.38
2023-04-24T18:35:14.314Z,39.05
2023-04-24T18:37:43.409Z,26.33
2023-04-24T18:40:12.776Z,24.35
2023-04-24T18:42:42.393Z,20.85
2023-04-24T18:45:14.691Z,18.42
2023-04-24T18:47:45.231Z,16.92
2023-04-24T18:50:15.732Z,15.10
2023-04-24T18:52:44.858Z,15.63
2023-04-24T18:55:13.942Z,16.63
2023-04-24T18:57:42.972Z,16.13
2023-04-24T19:00:12.418Z,13.52
2023-04-24T19:02:41.914Z,15.88
2023-04-24T19:05:12.600Z,13.35
2023-04-24T19:07:43.366Z,11.93
2023-04-24T19:10:12.869Z,13.65
2023-04-24T19:12:41.825Z,11.43
2023-04-24T19:15:14.646Z,14.18
2023-04-24T19:17:43.721Z,14.93
2023-04-24T19:20:13.016Z,12.90
2023-04-24T19:22:42.346Z,13.40
2023-04-24T19:25:11.374Z,13.75
2023-04-24T19:27:40.851Z,13.45
2023-04-24T19:30:10.516Z,11.98
2023-04-24T19:32:39.662Z,12.88
2023-04-24T19:35:09.281Z,15.52
2023-04-24T19:37:38.554Z,13.38
2023-04-24T19:40:08.990Z,12.85
2023-04-24T19:42:43.746Z,14.60
2023-04-24T19:45:13.992Z,13.73
2023-04-24T19:47:44.189Z,14.13
2023-04-24T19:50:16.027Z,14.45
2023-04-24T19:52:45.110Z,17.67
2023-04-24T19:55:13.953Z,14.20
2023-04-24T19:57:43.697Z,15.90
2023-04-24T20:00:13.406Z,19.20
2023-04-24T20:02:43.329Z,15.02
2023-04-24T20:05:13.293Z,17.33
2023-04-24T20:07:43.431Z,24.27
2023-04-24T20:10:14.250Z,17.08
2023-04-24T20:12:46.583Z,14.40
2023-04-24T20:15:19.671Z,18.60
2023-04-24T20:17:52.069Z,18.08
2023-04-24T20:20:25.044Z,16.10
2023-04-24T20:22:58.669Z,16.70
2023-04-24T20:25:32.234Z,15.40
2023-04-24T20:28:05.355Z,15.90
2023-04-24T20:30:38.472Z,15.48
2023-04-24T20:33:12.158Z,15.32
2023-04-24T20:35:45.609Z,14.60
2023-04-24T20:38:20.606Z,15.63
2023-04-24T20:40:58.054Z,18.50
2023-04-24T20:43:31.251Z,16.20
2023-04-24T20:46:04.787Z,17.17
2023-04-24T20:48:39.543Z,17.05
2023-04-24T20:51:12.683Z,19.88
2023-04-24T20:53:46.429Z,53.17
2023-04-24T20:56:23.452Z,225.77
2023-04-24T20:58:57.502Z,363.63
2023-04-24T21:01:31.917Z,293.73
2023-04-24T21:04:06.160Z,152.00
2023-04-24T21:06:38.166Z,40.47
2023-04-24T21:09:12.367Z,33.35
2023-04-24T21:11:46.611Z,24.35
2023-04-24T21:14:19.869Z,24.33
2023-04-24T21:16:52.928Z,27.88
2023-04-24T21:19:25.529Z,22.85
2023-04-24T21:21:58.524Z,26.73
2023-04-24T21:24:31.074Z,27.45
2023-04-24T21:29:37.912Z,22.48
2023-04-24T21:32:11.219Z,19.70
2023-04-24T21:34:44.387Z,19.20
2023-04-24T21:37:19.660Z,17.02
2023-04-24T21:39:52.278Z,17.92
2023-04-24T21:42:25.937Z,17.40
2023-04-24T21:44:58.566Z,22.65
2023-04-24T21:47:32.162Z,53.15
2023-04-24T21:50:05.311Z,39.08
2023-04-24T21:52:38.523Z,38.13
2023-04-24T21:55:11.589Z,38.55
2023-04-24T21:57:44.053Z,38.80
2023-04-24T22:00:17.751Z,116.00
2023-04-24T22:02:50.766Z,97.00
2023-04-24T22:07:56.374Z,32.30
2023-04-24T22:10:30.124Z,29.17
2023-04-24T22:13:03.550Z,40.40
2023-04-24T22:15:37.302Z,54.30
2023-04-24T22:18:11.975Z,27.50
2023-04-24T22:20:45.082Z,25.92
2023-04-24T22:23:19.758Z,26.40
2023-04-24T22:25:52.362Z,26.33
2023-04-24T22:28:24.824Z,35.05
2023-04-24T22:30:58.073Z,57.13
2023-04-24T22:33:31.712Z,40.75
2023-04-24T22:36:05.282Z,31.77
2023-04-24T22:38:37.889Z,24.77
2023-04-24T22:41:10.337Z,38.67
2023-04-24T22:43:43.452Z,24.02
2023-04-24T22:46:15.835Z,24.17
2023-04-24T22:48:51.229Z,25.92
2023-04-24T22:51:30.039Z,53.97
2023-04-24T22:54:10.035Z,21.48
2023-04-24T22:56:43.814Z,49.65
2023-04-24T22:59:16.971Z,35.22
2023-04-24T23:01:50.564Z,33.70
2023-04-24T23:04:23.784Z,29.40
2023-04-24T23:06:57.748Z,27.40
2023-04-24T23:09:30.282Z,32.15
2023-04-24T23:12:00.231Z,34.42
2023-04-24T23:14:29.644Z,27.10
2023-04-24T23:16:59.536Z,24.20
2023-04-24T23:19:29.079Z,22.95
2023-04-24T23:21:58.161Z,26.63
2023-04-24T23:24:27.701Z,24.90
2023-04-24T23:26:57.224Z,23.33
2023-04-24T23:29:27.170Z,22.77
2023-04-24T23:31:56.549Z,27.38
2023-04-24T23:34:26.248Z,22.05
2023-04-24T23:36:55.236Z,21.35
2023-04-24T23:39:24.579Z,20.15
2023-04-24T23:41:54.548Z,19.23
2023-04-24T23:44:24.299Z,21.92
2023-04-24T23:46:53.197Z,18.25
2023-04-24T23:49:23.475Z,16.55
2023-04-24T23:51:53.316Z,19.55
2023-04-24T23:54:23.029Z,19.52
2023-04-24T23:56:51.871Z,19.92
2023-04-24T23:59:22.702Z,17.48
